Time;durP1;ratioP1;P1;durP2;ratioP2;P2;SDS_P1;SDS_P2;PMS_P1;PMS_P2;Temp;Humidity;BMP_temperature;BMP_pressure;BME280_temperature;BME280_humidity;BME280_pressure;Samples;Min_cycle;Max_cycle;Signal;HPM_P1;HPM_P2
2022/03/29 00:01:31;;;;;;;56.47;33.75;;;6.80;99.90;;;;;;5020295;28;20079;-67
2022/03/29 00:03:56;;;;;;;62.28;36.92;;;6.80;99.90;;;;;;4994068;28;20049;-68
2022/03/29 00:06:22;;;;;;;59.67;36.20;;;6.80;99.90;;;;;;5018388;28;20060;-67
2022/03/29 00:08:48;;;;;;;52.55;33.70;;;6.80;99.90;;;;;;5023772;28;20061;-68
2022/03/29 00:11:14;;;;;;;60.88;36.63;;;6.90;99.90;;;;;;5015446;28;20580;-67
2022/03/29 00:13:40;;;;;;;53.25;35.30;;;6.90;99.90;;;;;;5022368;28;20049;-68
2022/03/29 00:16:05;;;;;;;61.22;35.15;;;6.80;99.90;;;;;;5019469;28;20050;-68
2022/03/29 00:18:31;;;;;;;60.95;34.78;;;6.80;99.90;;;;;;5022633;28;20038;-67
2022/03/29 00:20:57;;;;;;;60.30;37.70;;;6.80;99.90;;;;;;5017235;28;20099;-67
2022/03/29 00:23:22;;;;;;;69.78;36.38;;;6.80;99.90;;;;;;5008697;28;20045;-68
2022/03/29 00:25:48;;;;;;;55.00;37.47;;;6.70;99.90;;;;;;5000326;28;20056;-68
2022/03/29 00:28:14;;;;;;;62.58;40.03;;;6.70;99.90;;;;;;5005804;28;20124;-68
2022/03/29 00:30:40;;;;;;;63.85;36.42;;;6.60;99.90;;;;;;5017204;28;20068;-67
2022/03/29 00:33:06;;;;;;;62.00;37.33;;;6.60;99.90;;;;;;5011101;28;20353;-67
2022/03/29 00:35:32;;;;;;;59.67;36.80;;;6.70;99.90;;;;;;5007474;28;20052;-66
2022/03/29 00:37:58;;;;;;;61.72;38.47;;;6.80;99.90;;;;;;5024125;28;20049;-67
2022/03/29 00:40:24;;;;;;;71.70;40.75;;;6.80;99.90;;;;;;5010207;28;20055;-67
2022/03/29 00:42:50;;;;;;;71.15;36.85;;;6.80;99.90;;;;;;5010338;28;20033;-67
2022/03/29 00:45:16;;;;;;;67.00;40.70;;;6.70;99.90;;;;;;5017919;28;20128;-66
2022/03/29 00:47:42;;;;;;;63.03;38.13;;;6.80;99.90;;;;;;5011174;28;20547;-68
2022/03/29 00:50:08;;;;;;;69.82;38.55;;;6.80;99.90;;;;;;5015309;28;20053;-68
2022/03/29 00:52:36;;;;;;;69.20;38.38;;;6.80;99.90;;;;;;5007838;28;20077;-68
2022/03/29 00:55:02;;;;;;;70.30;40.03;;;6.80;99.90;;;;;;5017754;28;20047;-68
2022/03/29 00:57:29;;;;;;;68.10;38.42;;;6.90;99.90;;;;;;5013506;28;20049;-67
2022/03/29 00:59:55;;;;;;;66.95;37.88;;;6.90;99.90;;;;;;5016926;28;20119;-67
2022/03/29 01:02:21;;;;;;;61.83;38.25;;;6.90;99.90;;;;;;5019978;28;20053;-67
2022/03/29 01:04:47;;;;;;;59.42;37.70;;;7.00;99.90;;;;;;5008036;28;20391;-68
2022/03/29 01:07:13;;;;;;;67.85;37.25;;;7.00;99.90;;;;;;5020537;28;20041;-67
2022/03/29 01:09:39;;;;;;;70.43;38.97;;;7.00;99.90;;;;;;4990219;28;20053;-67
2022/03/29 01:12:05;;;;;;;68.75;40.42;;;7.10;99.90;;;;;;5007352;28;20038;-68
2022/03/29 01:14:32;;;;;;;56.05;34.55;;;7.10;99.90;;;;;;5008312;28;20486;-68
2022/03/29 01:19:45;;;;;;;52.92;34.55;;;7.10;99.90;;;;;;4998392;28;20050;-67
2022/03/29 01:22:12;;;;;;;52.88;31.52;;;7.10;99.90;;;;;;5009381;28;20116;-67
2022/03/29 01:24:41;;;;;;;54.35;34.10;;;7.10;99.90;;;;;;5018600;28;20076;-67
2022/03/29 01:27:07;;;;;;;72.18;37.97;;;7.10;99.90;;;;;;5020095;28;20075;-67
2022/03/29 01:29:34;;;;;;;57.92;33.30;;;7.10;99.90;;;;;;5000815;28;20045;-68
2022/03/29 01:32:07;;;;;;;55.35;35.80;;;7.10;99.90;;;;;;5013055;28;20396;-68
2022/03/29 01:34:35;;;;;;;57.50;34.17;;;7.10;99.90;;;;;;5016123;28;20038;-68
2022/03/29 01:37:03;;;;;;;56.58;36.85;;;7.10;99.90;;;;;;5021032;28;20053;-67
2022/03/29 01:39:29;;;;;;;51.42;33.28;;;7.10;99.90;;;;;;5005553;28;20076;-67
2022/03/29 01:41:55;;;;;;;63.20;36.97;;;7.10;99.90;;;;;;5019883;28;20606;-68
2022/03/29 01:44:20;;;;;;;51.17;33.50;;;7.10;99.90;;;;;;5003316;28;20116;-67
2022/03/29 01:46:46;;;;;;;71.65;38.75;;;7.10;99.90;;;;;;5017054;28;20052;-68
2022/03/29 01:49:13;;;;;;;63.75;35.53;;;7.10;99.90;;;;;;5006400;28;20058;-68
2022/03/29 01:51:39;;;;;;;49.07;32.83;;;7.10;99.90;;;;;;5021081;28;20053;-68
2022/03/29 01:54:05;;;;;;;61.80;37.90;;;7.00;99.90;;;;;;5006757;28;20362;-68
2022/03/29 01:56:34;;;;;;;61.65;36.40;;;7.00;99.90;;;;;;5008349;28;20057;-68
2022/03/29 01:59:05;;;;;;;78.93;37.50;;;7.00;99.90;;;;;;5010741;28;20126;-67
2022/03/29 02:01:47;;;;;;;62.88;36.22;;;7.00;99.90;;;;;;5024427;28;20050;-68
2022/03/29 02:04:13;;;;;;;68.90;38.55;;;7.00;99.90;;;;;;5020160;28;20125;-67
2022/03/29 02:06:40;;;;;;;62.17;34.63;;;7.00;99.90;;;;;;5015921;28;20048;-68
2022/03/29 02:09:06;;;;;;;59.20;36.00;;;7.00;99.90;;;;;;5024738;28;20042;-67
2022/03/29 02:11:33;;;;;;;58.22;36.55;;;7.10;99.90;;;;;;5009702;28;20042;-68
2022/03/29 02:13:58;;;;;;;47.60;32.00;;;7.10;99.90;;;;;;5012454;28;20050;-68
2022/03/29 02:16:24;;;;;;;61.05;36.25;;;7.10;99.90;;;;;;5023556;28;20104;-67
2022/03/29 02:18:54;;;;;;;48.80;33.45;;;7.10;99.90;;;;;;5012029;28;20518;-68
2022/03/29 02:21:20;;;;;;;59.55;34.08;;;7.10;99.90;;;;;;5006071;28;20510;-68
2022/03/29 02:23:45;;;;;;;58.28;35.33;;;7.10;99.90;;;;;;5018163;28;20048;-68
2022/03/29 02:26:11;;;;;;;55.30;33.42;;;7.20;99.90;;;;;;5007452;28;20101;-68
2022/03/29 02:28:37;;;;;;;55.35;35.35;;;7.20;99.90;;;;;;5008859;28;20050;-68
2022/03/29 02:31:03;;;;;;;56.70;34.25;;;7.10;99.90;;;;;;5024863;28;20141;-68
2022/03/29 02:33:29;;;;;;;59.58;34.67;;;7.20;99.90;;;;;;5006959;28;20039;-68
2022/03/29 02:35:55;;;;;;;67.15;37.53;;;7.20;99.90;;;;;;5010634;28;20049;-68
2022/03/29 02:38:21;;;;;;;65.38;36.63;;;7.20;99.90;;;;;;5004671;28;20563;-67
2022/03/29 02:40:49;;;;;;;70.20;37.38;;;7.20;99.90;;;;;;5009286;28;20038;-67
2022/03/29 02:43:16;;;;;;;60.00;34.95;;;7.20;99.90;;;;;;5015297;28;20046;-68
2022/03/29 02:45:42;;;;;;;60.05;35.60;;;7.20;99.90;;;;;;5024616;28;20143;-68
2022/03/29 02:48:07;;;;;;;59.55;35.60;;;7.20;99.90;;;;;;5011443;28;20092;-67
2022/03/29 02:50:33;;;;;;;53.33;35.47;;;7.20;99.90;;;;;;5022788;28;20054;-68
2022/03/29 02:53:01;;;;;;;55.78;34.67;;;7.20;99.90;;;;;;5015907;28;20519;-67
2022/03/29 02:55:35;;;;;;;60.90;35.20;;;7.20;99.90;;;;;;5024540;28;20053;-67
2022/03/29 02:58:00;;;;;;;60.85;35.97;;;7.20;99.90;;;;;;5011702;28;20077;-67
2022/03/29 03:00:27;;;;;;;63.40;37.58;;;7.20;99.90;;;;;;5024314;28;20065;-68
2022/03/29 03:02:54;;;;;;;56.65;34.42;;;7.20;99.90;;;;;;5019918;28;20042;-67
2022/03/29 03:05:20;;;;;;;60.67;36.25;;;7.20;99.90;;;;;;5008985;28;20103;-67
2022/03/29 03:07:47;;;;;;;56.03;36.38;;;7.20;99.90;;;;;;5008588;28;20046;-69
2022/03/29 03:10:14;;;;;;;60.63;35.97;;;7.20;99.90;;;;;;5018188;28;20506;-67
2022/03/29 03:12:41;;;;;;;61.40;35.78;;;7.20;99.90;;;;;;5014429;28;20081;-68
2022/03/29 03:15:09;;;;;;;63.27;35.20;;;7.20;99.90;;;;;;5022475;28;20886;-67
2022/03/29 03:17:35;;;;;;;60.28;36.50;;;7.20;99.90;;;;;;5011808;28;20053;-68
2022/03/29 03:20:01;;;;;;;66.47;37.38;;;7.20;99.90;;;;;;4998054;28;20069;-67
2022/03/29 03:22:27;;;;;;;55.72;34.65;;;7.20;99.90;;;;;;5022182;28;20920;-68
2022/03/29 03:24:53;;;;;;;64.80;37.03;;;7.20;99.90;;;;;;5016669;28;20048;-67
2022/03/29 03:27:19;;;;;;;56.80;33.72;;;7.20;99.90;;;;;;5016348;28;20506;-68
2022/03/29 03:29:45;;;;;;;59.60;34.55;;;7.20;99.90;;;;;;5020896;28;20541;-68
2022/03/29 03:32:11;;;;;;;64.75;36.63;;;7.20;99.90;;;;;;5009955;28;20057;-67
2022/03/29 03:34:38;;;;;;;76.47;40.83;;;7.20;99.90;;;;;;5021608;28;20045;-67
2022/03/29 03:37:04;;;;;;;58.78;36.83;;;7.20;99.90;;;;;;5009990;28;20499;-67
2022/03/29 03:39:32;;;;;;;65.78;39.10;;;7.20;99.90;;;;;;5012092;28;20065;-68
2022/03/29 03:41:58;;;;;;;60.97;35.13;;;7.20;99.90;;;;;;5005111;28;20149;-68
2022/03/29 03:44:24;;;;;;;64.47;36.28;;;7.20;99.90;;;;;;5020764;28;20052;-67
2022/03/29 03:46:50;;;;;;;66.78;36.47;;;7.20;99.90;;;;;;5017303;28;20046;-67
2022/03/29 03:49:15;;;;;;;60.63;37.70;;;7.20;99.90;;;;;;5009046;28;20101;-67
2022/03/29 03:51:41;;;;;;;65.78;37.58;;;7.20;99.90;;;;;;5008399;28;20057;-67
2022/03/29 03:54:07;;;;;;;62.78;36.50;;;7.20;99.90;;;;;;5017170;28;20136;-67
2022/03/29 03:56:33;;;;;;;60.47;37.33;;;7.20;99.90;;;;;;5014739;28;20550;-68
2022/03/29 03:58:58;;;;;;;58.70;35.80;;;7.20;99.90;;;;;;5009730;28;20038;-68
2022/03/29 04:01:24;;;;;;;67.97;39.00;;;7.20;99.90;;;;;;5003360;28;20077;-67
2022/03/29 04:03:51;;;;;;;66.28;37.75;;;7.20;99.90;;;;;;5008649;28;20081;-68
2022/03/29 04:06:16;;;;;;;59.03;37.20;;;7.20;99.90;;;;;;5008922;28;20048;-68
2022/03/29 04:08:43;;;;;;;72.95;37.53;;;7.20;99.90;;;;;;5008030;28;20050;-68
2022/03/29 04:11:09;;;;;;;68.57;38.50;;;7.20;99.90;;;;;;5002752;28;20042;-68
2022/03/29 04:13:35;;;;;;;79.95;39.97;;;7.20;99.90;;;;;;5002340;28;20523;-66
2022/03/29 04:16:03;;;;;;;64.93;37.65;;;7.20;99.90;;;;;;5007758;28;20084;-68
2022/03/29 04:18:29;;;;;;;71.25;40.78;;;7.20;99.90;;;;;;5013741;28;20053;-68
2022/03/29 04:20:57;;;;;;;71.97;40.22;;;7.20;99.90;;;;;;5020696;28;20038;-68
2022/03/29 04:23:22;;;;;;;68.10;40.67;;;7.20;99.90;;;;;;5009215;28;20046;-68
2022/03/29 04:25:48;;;;;;;77.85;43.45;;;7.20;99.90;;;;;;5025683;28;20072;-68
2022/03/29 04:28:13;;;;;;;70.72;42.20;;;7.20;99.90;;;;;;5007672;28;20061;-70
2022/03/29 04:30:39;;;;;;;75.10;41.65;;;7.20;99.90;;;;;;5003369;28;20121;-69
2022/03/29 04:33:06;;;;;;;68.85;40.80;;;7.20;99.90;;;;;;5001055;28;20684;-68
2022/03/29 04:35:32;;;;;;;74.60;43.40;;;7.20;99.90;;;;;;5001783;28;20050;-69
2022/03/29 04:37:57;;;;;;;74.05;42.33;;;7.20;99.90;;;;;;5002026;28;20402;-69
2022/03/29 04:40:23;;;;;;;77.47;44.92;;;7.20;99.90;;;;;;5009551;28;20053;-69
2022/03/29 04:42:51;;;;;;;72.18;45.33;;;7.20;99.90;;;;;;5008446;28;20550;-71
2022/03/29 04:45:18;;;;;;;83.70;43.72;;;7.10;99.90;;;;;;5017080;28;20412;-69
2022/03/29 04:47:46;;;;;;;80.43;45.60;;;7.10;99.90;;;;;;5007390;28;20041;-68
2022/03/29 04:50:13;;;;;;;80.07;44.08;;;7.10;99.90;;;;;;5009473;28;20045;-67
2022/03/29 04:52:44;;;;;;;82.63;43.47;;;7.10;99.90;;;;;;5021595;28;20495;-68
2022/03/29 04:55:11;;;;;;;81.47;44.15;;;7.10;99.90;;;;;;5008203;28;20061;-68
2022/03/29 04:57:36;;;;;;;83.75;45.17;;;7.10;99.90;;;;;;5014582;28;20120;-68
2022/03/29 05:00:04;;;;;;;79.97;44.80;;;7.10;99.90;;;;;;5013985;28;20132;-71
2022/03/29 05:02:30;;;;;;;75.07;43.22;;;7.10;99.90;;;;;;5011708;28;20060;-69
2022/03/29 05:04:56;;;;;;;69.63;42.40;;;7.10;99.90;;;;;;5011709;28;20096;-68
2022/03/29 05:07:23;;;;;;;68.50;43.63;;;7.10;99.90;;;;;;5007532;28;20446;-68
2022/03/29 05:09:50;;;;;;;77.90;42.40;;;7.10;99.90;;;;;;5021157;28;20493;-68
2022/03/29 05:12:16;;;;;;;81.75;43.80;;;7.10;99.90;;;;;;5007347;28;20109;-68
2022/03/29 05:14:43;;;;;;;80.60;44.15;;;7.10;99.90;;;;;;5003378;28;20050;-68
2022/03/29 05:17:09;;;;;;;79.07;42.92;;;7.10;99.90;;;;;;5020980;28;20100;-68
2022/03/29 05:19:34;;;;;;;77.18;41.03;;;7.10;99.90;;;;;;5006784;28;20058;-68
2022/03/29 05:22:00;;;;;;;83.97;43.95;;;7.10;99.90;;;;;;5027221;28;20038;-68
2022/03/29 05:24:26;;;;;;;72.50;43.28;;;7.10;99.90;;;;;;5013115;28;20049;-67
2022/03/29 05:26:51;;;;;;;80.35;44.85;;;7.10;99.90;;;;;;5008186;28;20038;-67
2022/03/29 05:29:21;;;;;;;77.18;45.33;;;7.10;99.90;;;;;;5008481;28;20061;-68
2022/03/29 05:31:46;;;;;;;77.07;42.85;;;7.10;99.90;;;;;;5018223;28;20042;-68
2022/03/29 05:34:13;;;;;;;78.53;45.95;;;7.10;99.90;;;;;;5016733;28;20045;-68
2022/03/29 05:36:44;;;;;;;73.43;40.75;;;7.10;99.90;;;;;;5007936;28;20498;-68
2022/03/29 05:39:10;;;;;;;78.80;43.30;;;7.10;99.90;;;;;;5016921;28;20442;-68
2022/03/29 05:41:37;;;;;;;84.10;44.83;;;7.10;99.90;;;;;;5011991;28;20145;-68
2022/03/29 05:44:03;;;;;;;80.03;43.53;;;7.10;99.90;;;;;;5010866;28;20411;-67
2022/03/29 05:49:13;;;;;;;72.03;42.75;;;7.10;99.90;;;;;;5013461;28;20053;-68
2022/03/29 05:51:38;;;;;;;77.35;43.55;;;7.10;99.90;;;;;;5006229;28;20100;-68
2022/03/29 05:54:06;;;;;;;76.82;43.00;;;7.10;99.90;;;;;;5008457;28;20045;-68
2022/03/29 05:56:31;;;;;;;80.75;45.42;;;7.10;99.90;;;;;;5011324;28;20057;-67
2022/03/29 05:58:57;;;;;;;94.32;49.42;;;7.10;99.90;;;;;;5004250;28;20054;-68
2022/03/29 06:01:23;;;;;;;84.28;43.22;;;7.10;99.90;;;;;;5013842;28;20504;-70
2022/03/29 06:03:49;;;;;;;78.55;44.90;;;7.10;99.90;;;;;;5017255;28;20048;-68
2022/03/29 06:06:15;;;;;;;83.45;44.25;;;7.10;99.90;;;;;;5009775;28;20052;-68
2022/03/29 06:08:41;;;;;;;90.60;44.08;;;7.10;99.90;;;;;;5023267;28;20049;-68
2022/03/29 06:11:07;;;;;;;80.22;45.80;;;7.10;99.90;;;;;;5010063;28;20088;-69
2022/03/29 06:13:33;;;;;;;78.47;44.80;;;7.10;99.90;;;;;;5008320;28;20038;-68
2022/03/29 06:15:59;;;;;;;80.47;44.10;;;7.10;99.90;;;;;;5008256;28;20052;-68
2022/03/29 06:18:25;;;;;;;75.22;42.28;;;7.10;99.90;;;;;;5015985;28;20045;-67
2022/03/29 06:20:51;;;;;;;76.68;46.35;;;7.10;99.90;;;;;;5010163;28;20069;-68
2022/03/29 06:23:17;;;;;;;84.82;48.63;;;7.20;99.90;;;;;;5001581;28;20088;-68
2022/03/29 06:25:43;;;;;;;85.15;46.03;;;7.20;99.90;;;;;;5009961;28;20037;-67
2022/03/29 06:28:10;;;;;;;81.70;44.72;;;7.20;99.90;;;;;;5008995;28;20046;-67
2022/03/29 06:30:40;;;;;;;78.60;43.63;;;7.20;99.90;;;;;;5009685;28;20038;-67
2022/03/29 06:33:06;;;;;;;82.60;42.60;;;7.20;99.90;;;;;;5006659;28;20703;-67
2022/03/29 06:35:34;;;;;;;82.95;43.38;;;7.20;99.90;;;;;;5011326;28;20060;-67
2022/03/29 06:38:00;;;;;;;75.88;43.42;;;7.20;99.90;;;;;;5020603;28;20120;-67
2022/03/29 06:40:27;;;;;;;99.22;45.72;;;7.30;99.90;;;;;;5000120;28;20060;-67
2022/03/29 06:42:57;;;;;;;79.80;44.30;;;7.30;99.90;;;;;;5010684;28;20052;-67
2022/03/29 06:45:24;;;;;;;85.90;46.33;;;7.30;99.90;;;;;;5010344;28;20511;-68
2022/03/29 06:47:50;;;;;;;78.60;44.95;;;7.30;99.90;;;;;;5011600;28;20087;-67
2022/03/29 06:50:16;;;;;;;90.57;43.55;;;7.30;99.90;;;;;;5009898;28;20049;-67
2022/03/29 06:52:44;;;;;;;71.75;41.08;;;7.30;99.90;;;;;;5009996;28;20817;-67
2022/03/29 06:55:12;;;;;;;84.65;47.67;;;7.30;99.90;;;;;;5009549;28;20140;-66
2022/03/29 06:57:38;;;;;;;78.72;44.75;;;7.40;99.90;;;;;;5022724;28;20104;-66
2022/03/29 07:00:05;;;;;;;93.22;43.50;;;7.40;99.90;;;;;;5006010;28;20056;-68
2022/03/29 07:02:31;;;;;;;72.57;43.22;;;7.30;99.90;;;;;;5010130;28;20124;-67
2022/03/29 07:04:57;;;;;;;94.20;45.25;;;7.40;99.90;;;;;;5008836;28;20129;-67
2022/03/29 07:07:23;;;;;;;83.03;46.53;;;7.40;99.90;;;;;;4984253;28;20101;-67
2022/03/29 07:12:52;;;;;;;85.97;48.50;;;7.40;99.90;;;;;;5010302;28;20058;-66
2022/03/29 07:15:19;;;;;;;87.22;47.17;;;7.50;99.90;;;;;;5009318;28;20049;-67
2022/03/29 07:17:45;;;;;;;83.50;47.58;;;7.50;99.90;;;;;;5005099;28;20492;-67
2022/03/29 07:20:12;;;;;;;87.95;48.67;;;7.60;99.90;;;;;;5019520;28;20037;-67
2022/03/29 07:22:38;;;;;;;95.07;46.78;;;7.60;99.90;;;;;;5017971;28;20057;-67
2022/03/29 07:25:05;;;;;;;87.70;48.75;;;7.70;99.90;;;;;;5012682;28;20072;-67
2022/03/29 07:27:31;;;;;;;88.70;47.25;;;7.70;99.90;;;;;;5022348;28;20092;-67
2022/03/29 07:29:59;;;;;;;89.25;46.42;;;7.80;99.90;;;;;;5009624;28;20545;-68
2022/03/29 07:32:25;;;;;;;;;;;7.80;99.90;;;;;;5010601;28;20399;-68
2022/03/29 07:34:53;;;;;;;87.85;45.05;;;7.70;99.90;;;;;;4999434;28;19922;-67
2022/03/29 07:37:19;;;;;;;89.15;47.10;;;7.70;99.90;;;;;;5006087;28;20103;-68
2022/03/29 07:39:46;;;;;;;96.53;46.28;;;7.70;99.90;;;;;;5014926;28;20415;-68
2022/03/29 07:42:11;;;;;;;94.53;47.08;;;7.70;99.90;;;;;;5015087;28;20049;-68
2022/03/29 07:44:37;;;;;;;77.95;44.88;;;7.70;99.90;;;;;;5005915;28;20050;-68
2022/03/29 07:47:03;;;;;;;91.57;48.92;;;7.70;99.90;;;;;;5007785;28;20078;-68
2022/03/29 07:49:29;;;;;;;80.60;45.22;;;7.80;99.90;;;;;;5012912;28;20050;-69
2022/03/29 07:51:56;;;;;;;86.10;48.15;;;7.80;99.90;;;;;;5012083;28;20056;-69
2022/03/29 07:54:21;;;;;;;97.35;47.35;;;7.80;99.90;;;;;;5017913;28;20049;-68
2022/03/29 07:56:47;;;;;;;103.35;47.40;;;7.80;99.90;;;;;;5014032;28;20045;-67
2022/03/29 07:59:13;;;;;;;101.00;51.47;;;7.90;99.90;;;;;;5007903;28;20093;-68
2022/03/29 08:01:39;;;;;;;98.15;48.63;;;8.00;99.90;;;;;;5006294;28;20052;-69
2022/03/29 08:04:05;;;;;;;95.82;49.22;;;8.00;99.90;;;;;;5008304;28;20545;-68
2022/03/29 08:06:31;;;;;;;94.45;53.70;;;8.10;99.90;;;;;;5025733;28;20042;-68
2022/03/29 08:08:57;;;;;;;89.35;50.50;;;8.10;99.90;;;;;;5018369;28;20064;-68
2022/03/29 08:11:24;;;;;;;94.57;52.03;;;8.20;99.90;;;;;;5009152;28;20057;-68
2022/03/29 08:13:50;;;;;;;103.00;53.85;;;8.30;99.90;;;;;;5007429;28;20053;-68
2022/03/29 08:16:16;;;;;;;98.72;52.92;;;8.30;99.90;;;;;;5021377;28;20802;-69
2022/03/29 08:18:42;;;;;;;96.78;54.90;;;8.40;99.90;;;;;;5014116;28;20597;-68
2022/03/29 08:23:53;;;;;;;107.60;54.78;;;8.50;99.90;;;;;;5003948;28;20050;-67
2022/03/29 08:26:19;;;;;;;94.50;52.63;;;8.60;99.90;;;;;;5014472;28;20103;-68
2022/03/29 08:28:45;;;;;;;98.38;52.55;;;8.60;99.90;;;;;;5019880;28;20125;-68
2022/03/29 08:31:12;;;;;;;99.63;48.58;;;8.60;99.90;;;;;;5008758;28;20068;-68
2022/03/29 08:33:37;;;;;;;87.43;45.47;;;8.70;99.90;;;;;;5003026;28;20054;-68
2022/03/29 08:36:03;;;;;;;76.10;42.15;;;8.70;99.90;;;;;;5012051;28;20123;-68
2022/03/29 08:38:29;;;;;;;72.88;40.05;;;8.80;99.90;;;;;;5015707;28;20050;-68
2022/03/29 08:40:58;;;;;;;76.43;39.00;;;8.70;99.90;;;;;;5007976;28;20781;-68
2022/03/29 08:43:29;;;;;;;72.28;38.22;;;8.70;99.90;;;;;;5007263;28;20065;-68
2022/03/29 08:45:56;;;;;;;62.03;37.10;;;8.70;99.90;;;;;;5008563;28;20052;-68
2022/03/29 08:48:27;;;;;;;66.00;36.28;;;8.70;99.90;;;;;;5019704;28;20081;-68
2022/03/29 08:50:55;;;;;;;64.97;37.78;;;8.80;99.90;;;;;;5006308;28;20785;-67
2022/03/29 08:53:21;;;;;;;63.00;36.90;;;8.80;99.90;;;;;;5008418;28;20565;-67
2022/03/29 08:55:48;;;;;;;65.93;35.17;;;8.80;99.90;;;;;;5012879;28;20041;-68
2022/03/29 08:58:17;;;;;;;74.30;39.08;;;8.80;99.90;;;;;;5006724;28;20053;-67
2022/03/29 09:00:45;;;;;;;85.13;39.97;;;8.90;99.90;;;;;;5008817;28;20053;-68
2022/03/29 09:03:11;;;;;;;75.38;37.38;;;9.00;99.90;;;;;;5006506;28;20049;-67
2022/03/29 09:05:37;;;;;;;75.20;37.25;;;8.90;99.90;;;;;;5007686;28;20056;-67
2022/03/29 09:08:08;;;;;;;70.65;38.53;;;9.00;99.90;;;;;;5008423;28;20050;-67
2022/03/29 09:10:44;;;;;;;88.15;40.47;;;8.90;99.90;;;;;;5013163;28;20057;-68
2022/03/29 09:13:31;;;;;;;81.03;38.78;;;8.90;99.90;;;;;;4998318;28;20042;-67
2022/03/29 09:16:01;;;;;;;66.72;37.78;;;8.90;99.90;;;;;;4988562;28;20617;-68
2022/03/29 09:18:28;;;;;;;86.15;39.38;;;9.00;99.90;;;;;;5015247;28;20049;-68
2022/03/29 09:21:14;;;;;;;75.70;42.15;;;9.10;99.90;;;;;;5027711;28;20045;-67
2022/03/29 09:23:42;;;;;;;64.53;36.67;;;9.20;99.90;;;;;;5027903;28;20049;-68
2022/03/29 09:26:28;;;;;;;69.60;37.97;;;9.20;99.90;;;;;;5020500;28;20037;-67
2022/03/29 09:28:54;;;;;;;73.70;38.40;;;9.20;99.90;;;;;;5008736;28;20054;-68
2022/03/29 09:31:22;;;;;;;86.60;39.10;;;9.10;99.90;;;;;;5008101;28;20052;-68
2022/03/29 09:33:49;;;;;;;83.63;42.47;;;9.20;99.90;;;;;;5008485;28;20053;-68
2022/03/29 09:36:20;;;;;;;71.78;39.38;;;9.20;99.90;;;;;;4977657;28;20077;-68
2022/03/29 09:38:51;;;;;;;82.30;39.45;;;9.30;99.90;;;;;;4998338;28;20495;-68
2022/03/29 09:41:32;;;;;;;71.40;37.25;;;9.40;99.90;;;;;;5012992;28;20049;-68
2022/03/29 09:44:11;;;;;;;67.65;39.42;;;9.40;99.90;;;;;;5006311;28;20062;-68
2022/03/29 09:47:00;;;;;;;70.80;39.03;;;9.50;99.90;;;;;;5020537;28;20053;-68
2022/03/29 09:49:27;;;;;;;77.88;38.50;;;9.50;99.90;;;;;;5021159;28;20108;-68
2022/03/29 09:52:10;;;;;;;65.80;39.55;;;9.60;99.90;;;;;;4997999;28;20057;-67
2022/03/29 09:54:37;;;;;;;73.50;40.15;;;9.70;99.90;;;;;;5002427;28;20160;-67
2022/03/29 09:57:04;;;;;;;69.90;39.97;;;9.70;99.90;;;;;;5008221;28;20053;-67
2022/03/29 09:59:32;;;;;;;63.38;37.90;;;9.90;99.90;;;;;;5003546;28;20052;-68
2022/03/29 10:01:58;;;;;;;62.55;36.90;;;9.90;99.90;;;;;;5005620;28;20060;-68
2022/03/29 10:04:33;;;;;;;69.40;38.83;;;10.00;99.90;;;;;;5005994;28;20081;-68
2022/03/29 10:07:04;;;;;;;63.70;37.30;;;10.20;99.90;;;;;;5005821;28;20092;-68
2022/03/29 10:09:33;;;;;;;70.00;38.63;;;10.20;99.90;;;;;;5020527;28;20033;-68
2022/03/29 10:12:05;;;;;;;81.47;39.83;;;10.30;99.90;;;;;;5005662;28;20741;-67
2022/03/29 10:14:38;;;;;;;71.35;39.83;;;10.40;99.90;;;;;;5006865;28;20066;-68
2022/03/29 10:17:06;;;;;;;68.75;37.50;;;10.50;99.90;;;;;;5020199;28;20046;-67
2022/03/29 10:19:33;;;;;;;63.15;36.08;;;10.50;99.90;;;;;;5015115;28;20128;-68
2022/03/29 10:21:59;;;;;;;71.13;36.80;;;10.50;99.90;;;;;;5010569;28;20056;-67
2022/03/29 10:24:26;;;;;;;63.47;34.85;;;10.50;99.90;;;;;;5009514;28;20463;-67
2022/03/29 10:26:53;;;;;;;68.43;37.22;;;10.40;99.90;;;;;;5010567;28;20042;-68
2022/03/29 10:29:19;;;;;;;61.85;36.15;;;10.40;99.90;;;;;;5010205;28;20046;-68
2022/03/29 10:31:56;;;;;;;60.40;35.92;;;10.40;99.90;;;;;;5016746;28;20509;-67
2022/03/29 10:34:25;;;;;;;67.43;35.45;;;10.50;99.90;;;;;;5010423;28;20061;-68
2022/03/29 10:37:19;;;;;;;64.03;35.88;;;10.50;99.90;;;;;;5006609;28;20038;-68
2022/03/29 10:39:45;;;;;;;66.30;35.85;;;10.60;99.90;;;;;;5010273;28;20557;-68
2022/03/29 10:42:23;;;;;;;75.78;36.95;;;10.80;99.90;;;;;;5022801;28;20042;-68
2022/03/29 10:45:01;;;;;;;64.95;36.95;;;10.90;99.90;;;;;;5008385;28;20049;-68
2022/03/29 10:47:29;;;;;;;64.78;36.40;;;10.80;99.90;;;;;;5010285;28;20587;-68
2022/03/29 10:49:54;;;;;;;65.80;32.97;;;10.80;99.90;;;;;;5015703;28;20492;-68
2022/03/29 10:52:20;;;;;;;56.80;34.90;;;10.80;99.90;;;;;;5010516;28;20108;-68
2022/03/29 10:54:46;;;;;;;60.63;32.78;;;11.00;99.90;;;;;;5011312;28;20044;-68
2022/03/29 10:57:28;;;;;;;61.72;33.22;;;11.00;99.90;;;;;;5009881;28;20403;-69
2022/03/29 11:00:13;;;;;;;60.35;32.08;;;11.00;99.90;;;;;;5009210;28;20103;-68
2022/03/29 11:02:59;;;;;;;60.15;33.85;;;11.20;99.90;;;;;;5010851;28;20148;-68
2022/03/29 11:05:24;;;;;;;70.30;32.25;;;11.30;99.90;;;;;;5010903;28;20046;-68
2022/03/29 11:07:50;;;;;;;50.35;31.05;;;11.40;99.90;;;;;;5013806;28;20044;-68
2022/03/29 11:10:21;;;;;;;70.03;33.50;;;11.50;99.90;;;;;;4995888;28;20455;-68
2022/03/29 11:12:53;;;;;;;53.65;32.13;;;11.60;99.90;;;;;;5007629;28;20570;-68
2022/03/29 11:15:25;;;;;;;54.50;31.13;;;11.70;99.90;;;;;;5007826;28;20057;-67
2022/03/29 11:17:55;;;;;;;88.10;34.35;;;11.70;99.90;;;;;;5008177;28;20050;-68
2022/03/29 11:20:32;;;;;;;66.57;31.52;;;11.90;99.90;;;;;;5013023;28;20494;-69
2022/03/29 11:23:04;;;;;;;58.53;29.27;;;11.70;99.90;;;;;;5009758;28;20140;-68
2022/03/29 11:25:37;;;;;;;57.08;31.92;;;11.90;99.90;;;;;;5009742;28;20121;-68
2022/03/29 11:28:14;;;;;;;57.33;30.23;;;11.90;99.90;;;;;;5002353;28;20069;-68
2022/03/29 11:30:41;;;;;;;54.60;30.63;;;12.10;99.90;;;;;;5004257;28;20046;-68
2022/03/29 11:33:09;;;;;;;56.08;29.98;;;11.90;99.90;;;;;;5005202;28;20884;-68
2022/03/29 11:35:38;;;;;;;64.72;32.35;;;11.90;99.90;;;;;;5008651;28;20050;-68
2022/03/29 11:38:10;;;;;;;54.72;27.90;;;11.70;99.90;;;;;;5001351;28;20084;-68
2022/03/29 11:40:37;;;;;;;49.97;29.02;;;11.70;99.90;;;;;;5018000;28;20038;-68
2022/03/29 11:43:05;;;;;;;55.20;26.17;;;11.80;99.90;;;;;;5008517;28;20168;-69
2022/03/29 11:45:39;;;;;;;62.75;28.15;;;12.00;99.90;;;;;;5020792;28;20050;-69
2022/03/29 11:48:12;;;;;;;54.83;29.33;;;11.90;99.90;;;;;;5017804;28;20049;-70
2022/03/29 11:50:45;;;;;;;50.88;29.77;;;11.70;99.90;;;;;;5008245;28;20455;-69
2022/03/29 11:53:34;;;;;;;60.97;27.23;;;12.00;99.90;;;;;;5009043;28;20034;-66
2022/03/29 11:56:03;;;;;;;54.83;27.63;;;12.20;99.90;;;;;;4998450;28;20420;-68
2022/03/29 11:58:39;;;;;;;51.88;26.48;;;12.40;99.90;;;;;;4989524;28;20062;-67
2022/03/29 12:01:13;;;;;;;248.63;43.75;;;12.60;99.90;;;;;;4997148;28;20049;-66
2022/03/29 12:03:44;;;;;;;59.28;22.92;;;12.70;99.90;;;;;;5021033;28;20080;-69
2022/03/29 12:06:22;;;;;;;110.18;29.42;;;12.90;99.90;;;;;;5000440;28;20396;-70
2022/03/29 12:08:55;;;;;;;46.80;25.55;;;12.80;99.90;;;;;;5007586;28;20061;-70
2022/03/29 12:11:28;;;;;;;53.80;22.83;;;12.60;99.90;;;;;;5005285;28;20041;-69
2022/03/29 12:14:12;;;;;;;60.72;23.38;;;12.70;99.90;;;;;;5011771;28;20073;-69
2022/03/29 12:16:46;;;;;;;48.03;24.25;;;12.50;99.90;;;;;;5006648;28;20045;-69
2022/03/29 12:19:17;;;;;;;54.00;25.63;;;12.50;99.90;;;;;;5022311;28;20129;-69
2022/03/29 12:21:48;;;;;;;45.42;23.75;;;12.30;99.90;;;;;;5008451;28;20050;-69
2022/03/29 12:24:14;;;;;;;50.83;23.98;;;12.20;99.90;;;;;;5020273;28;20065;-69
2022/03/29 12:26:46;;;;;;;51.97;24.67;;;12.30;99.90;;;;;;5007575;28;20054;-69
2022/03/29 12:29:16;;;;;;;57.20;23.27;;;12.30;99.90;;;;;;5006976;28;20104;-69
2022/03/29 12:31:42;;;;;;;49.80;23.42;;;12.30;99.90;;;;;;4990775;28;20502;-69
2022/03/29 12:34:09;;;;;;;48.10;22.80;;;12.20;99.90;;;;;;5003686;28;20046;-69
2022/03/29 12:36:40;;;;;;;51.05;24.52;;;12.20;99.90;;;;;;4987632;28;20104;-69
2022/03/29 12:39:07;;;;;;;47.58;23.45;;;12.30;99.90;;;;;;5015396;28;20046;-69
2022/03/29 12:41:52;;;;;;;54.25;22.92;;;12.30;99.90;;;;;;5005337;28;20041;-69
2022/03/29 12:44:32;;;;;;;47.70;23.23;;;12.30;99.90;;;;;;5012640;28;20112;-69
2022/03/29 12:46:59;;;;;;;43.13;22.70;;;12.40;99.90;;;;;;5006325;28;20066;-69
2022/03/29 12:49:25;;;;;;;48.17;23.17;;;12.60;99.90;;;;;;5015924;28;20924;-69
2022/03/29 12:51:54;;;;;;;44.45;23.70;;;12.80;99.90;;;;;;5006748;28;20503;-69